sensor_id;sensor_type;location;lat;lon;timestamp;temperature;humidity
65573;SHT30;52214;50.940;13.996;2022-12-07T00:00:18;2.11;99.99
65573;SHT30;52214;50.940;13.996;2022-12-07T00:02:43;1.97;99.99
65573;SHT30;52214;50.940;13.996;2022-12-07T00:05:09;2.11;99.99
65573;SHT30;52214;50.940;13.996;2022-12-07T00:07:34;2.10;99.99
65573;SHT30;52214;50.940;13.996;2022-12-07T00:10:00;2.08;99.99
65573;SHT30;52214;50.940;13.996;2022-12-07T00:12:25;2.07;99.99
65573;SHT30;52214;50.940;13.996;2022-12-07T00:14:51;2.06;99.99
65573;SHT30;52214;50.940;13.996;2022-12-07T00:17:16;2.08;99.99
65573;SHT30;52214;50.940;13.996;2022-12-07T00:19:42;2.03;99.99
65573;SHT30;52214;50.940;13.996;2022-12-07T00:22:07;2.06;99.99
65573;SHT30;52214;50.940;13.996;2022-12-07T00:24:33;2.08;99.99
65573;SHT30;52214;50.940;13.996;2022-12-07T00:26:58;2.06;99.99
65573;SHT30;52214;50.940;13.996;2022-12-07T00:29:24;2.00;99.99
65573;SHT30;52214;50.940;13.996;2022-12-07T00:31:49;2.03;99.99
65573;SHT30;52214;50.940;13.996;2022-12-07T00:34:20;1.97;99.99
65573;SHT30;52214;50.940;13.996;2022-12-07T00:36:46;2.04;99.99
65573;SHT30;52214;50.940;13.996;2022-12-07T00:39:12;2.07;99.99
65573;SHT30;52214;50.940;13.996;2022-12-07T00:41:38;2.03;99.99
65573;SHT30;52214;50.940;13.996;2022-12-07T00:44:03;2.06;99.99
65573;SHT30;52214;50.940;13.996;2022-12-07T00:46:29;1.98;99.99
65573;SHT30;52214;50.940;13.996;2022-12-07T00:48:54;2.08;99.99
65573;SHT30;52214;50.940;13.996;2022-12-07T00:51:22;1.86;99.99
65573;SHT30;52214;50.940;13.996;2022-12-07T00:53:49;2.03;99.99
65573;SHT30;52214;50.940;13.996;2022-12-07T00:56:34;1.97;99.99
65573;SHT30;52214;50.940;13.996;2022-12-07T00:59:02;2.00;99.99
65573;SHT30;52214;50.940;13.996;2022-12-07T01:01:31;2.00;99.99
65573;SHT30;52214;50.940;13.996;2022-12-07T01:03:57;1.91;99.99
65573;SHT30;52214;50.940;13.996;2022-12-07T01:06:24;1.97;99.99
65573;SHT30;52214;50.940;13.996;2022-12-07T01:08:50;1.96;99.99
65573;SHT30;52214;50.940;13.996;2022-12-07T01:11:18;1.98;99.99
65573;SHT30;52214;50.940;13.996;2022-12-07T01:13:44;1.96;99.99
65573;SHT30;52214;50.940;13.996;2022-12-07T01:16:15;2.00;99.99
65573;SHT30;52214;50.940;13.996;2022-12-07T01:18:41;1.94;99.99
65573;SHT30;52214;50.940;13.996;2022-12-07T01:21:17;1.97;99.99
65573;SHT30;52214;50.940;13.996;2022-12-07T01:23:43;1.91;99.99
65573;SHT30;52214;50.940;13.996;2022-12-07T01:26:17;1.98;99.99
65573;SHT30;52214;50.940;13.996;2022-12-07T01:28:43;2.01;99.99
65573;SHT30;52214;50.940;13.996;2022-12-07T01:31:14;2.03;99.99
65573;SHT30;52214;50.940;13.996;2022-12-07T01:33:41;2.00;99.99
65573;SHT30;52214;50.940;13.996;2022-12-07T01:36:19;1.98;99.99
65573;SHT30;52214;50.940;13.996;2022-12-07T01:38:46;1.91;99.99
65573;SHT30;52214;50.940;13.996;2022-12-07T01:41:12;1.89;99.99
65573;SHT30;52214;50.940;13.996;2022-12-07T01:46:32;2.03;99.99
65573;SHT30;52214;50.940;13.996;2022-12-07T01:48:58;1.98;99.99
65573;SHT30;52214;50.940;13.996;2022-12-07T01:51:25;1.98;99.99
65573;SHT30;52214;50.940;13.996;2022-12-07T01:53:51;2.00;99.99
65573;SHT30;52214;50.940;13.996;2022-12-07T01:56:19;1.93;99.99
65573;SHT30;52214;50.940;13.996;2022-12-07T01:58:46;1.91;99.99
65573;SHT30;52214;50.940;13.996;2022-12-07T02:01:13;1.97;99.99
65573;SHT30;52214;50.940;13.996;2022-12-07T02:03:41;2.04;99.99
65573;SHT30;52214;50.940;13.996;2022-12-07T02:06:07;1.94;99.99
65573;SHT30;52214;50.940;13.996;2022-12-07T02:08:34;1.93;99.99
65573;SHT30;52214;50.940;13.996;2022-12-07T02:11:01;1.94;99.99
65573;SHT30;52214;50.940;13.996;2022-12-07T02:13:33;2.01;99.99
65573;SHT30;52214;50.940;13.996;2022-12-07T02:16:30;2.00;99.99
65573;SHT30;52214;50.940;13.996;2022-12-07T02:19:01;1.94;99.99
65573;SHT30;52214;50.940;13.996;2022-12-07T02:26:38;1.89;99.99
65573;SHT30;52214;50.940;13.996;2022-12-07T02:31:44;1.90;99.99
65573;SHT30;52214;50.940;13.996;2022-12-07T02:34:42;1.87;99.99
65573;SHT30;52214;50.940;13.996;2022-12-07T02:37:16;1.89;99.99
65573;SHT30;52214;50.940;13.996;2022-12-07T02:39:51;1.83;99.99
65573;SHT30;52214;50.940;13.996;2022-12-07T02:42:24;1.62;99.99
65573;SHT30;52214;50.940;13.996;2022-12-07T02:44:52;1.43;99.99
65573;SHT30;52214;50.940;13.996;2022-12-07T02:47:20;1.45;99.99
65573;SHT30;52214;50.940;13.996;2022-12-07T02:49:46;1.46;99.99
65573;SHT30;52214;50.940;13.996;2022-12-07T02:52:12;1.42;99.99
65573;SHT30;52214;50.940;13.996;2022-12-07T02:54:38;1.49;99.99
65573;SHT30;52214;50.940;13.996;2022-12-07T03:02:36;1.28;99.99
65573;SHT30;52214;50.940;13.996;2022-12-07T03:15:33;1.49;99.99
65573;SHT30;52214;50.940;13.996;2022-12-07T03:18:00;1.52;99.99
65573;SHT30;52214;50.940;13.996;2022-12-07T03:20:29;1.49;99.99
65573;SHT30;52214;50.940;13.996;2022-12-07T03:22:56;1.41;99.99
65573;SHT30;52214;50.940;13.996;2022-12-07T03:25:23;1.52;99.99
65573;SHT30;52214;50.940;13.996;2022-12-07T03:30:26;1.51;99.99
65573;SHT30;52214;50.940;13.996;2022-12-07T03:33:27;1.52;99.99
65573;SHT30;52214;50.940;13.996;2022-12-07T03:35:52;1.55;99.99
65573;SHT30;52214;50.940;13.996;2022-12-07T03:38:22;1.56;99.99
65573;SHT30;52214;50.940;13.996;2022-12-07T03:41:12;1.53;99.99
65573;SHT30;52214;50.940;13.996;2022-12-07T03:43:40;1.51;99.99
65573;SHT30;52214;50.940;13.996;2022-12-07T03:54:42;1.25;99.99
65573;SHT30;52214;50.940;13.996;2022-12-07T03:57:10;1.23;99.99
65573;SHT30;52214;50.940;13.996;2022-12-07T03:59:38;1.17;99.99
65573;SHT30;52214;50.940;13.996;2022-12-07T04:02:07;1.04;99.99
65573;SHT30;52214;50.940;13.996;2022-12-07T04:04:33;1.07;99.99
65573;SHT30;52214;50.940;13.996;2022-12-07T04:06:59;0.97;99.99
65573;SHT30;52214;50.940;13.996;2022-12-07T04:09:25;1.08;99.99
65573;SHT30;52214;50.940;13.996;2022-12-07T04:11:51;1.11;99.99
65573;SHT30;52214;50.940;13.996;2022-12-07T04:14:17;1.20;99.99
65573;SHT30;52214;50.940;13.996;2022-12-07T04:16:53;1.23;99.99
65573;SHT30;52214;50.940;13.996;2022-12-07T04:19:21;1.24;99.99
65573;SHT30;52214;50.940;13.996;2022-12-07T04:21:47;1.23;99.99
65573;SHT30;52214;50.940;13.996;2022-12-07T04:24:14;1.18;99.99
65573;SHT30;52214;50.940;13.996;2022-12-07T04:26:41;1.18;99.99
65573;SHT30;52214;50.940;13.996;2022-12-07T04:29:08;1.28;99.99
65573;SHT30;52214;50.940;13.996;2022-12-07T04:31:34;1.21;99.99
65573;SHT30;52214;50.940;13.996;2022-12-07T04:34:00;1.13;99.99
65573;SHT30;52214;50.940;13.996;2022-12-07T04:36:26;1.09;99.99
65573;SHT30;52214;50.940;13.996;2022-12-07T04:38:53;1.04;99.99
65573;SHT30;52214;50.940;13.996;2022-12-07T04:41:20;1.00;99.99
65573;SHT30;52214;50.940;13.996;2022-12-07T04:43:55;1.24;99.35
65573;SHT30;52214;50.940;13.996;2022-12-07T04:46:23;1.20;99.65
65573;SHT30;52214;50.940;13.996;2022-12-07T04:48:49;1.27;99.43
65573;SHT30;52214;50.940;13.996;2022-12-07T04:51:18;1.34;99.30
65573;SHT30;52214;50.940;13.996;2022-12-07T04:53:44;1.35;99.61
65573;SHT30;52214;50.940;13.996;2022-12-07T04:56:09;1.32;99.38
65573;SHT30;52214;50.940;13.996;2022-12-07T04:58:35;1.30;99.32
65573;SHT30;52214;50.940;13.996;2022-12-07T05:01:00;1.23;99.56
65573;SHT30;52214;50.940;13.996;2022-12-07T05:03:26;1.17;99.87
65573;SHT30;52214;50.940;13.996;2022-12-07T05:05:51;1.11;98.39
65573;SHT30;52214;50.940;13.996;2022-12-07T05:08:17;1.03;98.54
65573;SHT30;52214;50.940;13.996;2022-12-07T05:10:42;0.79;99.69
65573;SHT30;52214;50.940;13.996;2022-12-07T05:13:08;0.63;99.99
65573;SHT30;52214;50.940;13.996;2022-12-07T05:15:33;0.58;99.99
65573;SHT30;52214;50.940;13.996;2022-12-07T05:17:59;0.68;99.99
65573;SHT30;52214;50.940;13.996;2022-12-07T05:20:25;0.69;99.32
65573;SHT30;52214;50.940;13.996;2022-12-07T05:22:50;0.55;99.99
65573;SHT30;52214;50.940;13.996;2022-12-07T05:25:16;0.48;99.99
65573;SHT30;52214;50.940;13.996;2022-12-07T05:27:41;0.51;99.99
65573;SHT30;52214;50.940;13.996;2022-12-07T05:30:07;0.31;99.99
65573;SHT30;52214;50.940;13.996;2022-12-07T05:32:33;0.24;99.99
65573;SHT30;52214;50.940;13.996;2022-12-07T05:34:59;0.35;99.99
65573;SHT30;52214;50.940;13.996;2022-12-07T05:37:24;0.31;99.99
65573;SHT30;52214;50.940;13.996;2022-12-07T05:39:50;0.37;99.99
65573;SHT30;52214;50.940;13.996;2022-12-07T05:42:15;0.35;99.99
65573;SHT30;52214;50.940;13.996;2022-12-07T05:47:19;0.41;99.99
65573;SHT30;52214;50.940;13.996;2022-12-07T05:49:45;0.40;99.99
65573;SHT30;52214;50.940;13.996;2022-12-07T05:52:11;0.48;99.99
65573;SHT30;52214;50.940;13.996;2022-12-07T05:54:36;0.68;99.00
65573;SHT30;52214;50.940;13.996;2022-12-07T05:57:02;0.62;99.71
65573;SHT30;52214;50.940;13.996;2022-12-07T05:59:27;0.80;98.79
65573;SHT30;52214;50.940;13.996;2022-12-07T06:01:59;0.96;97.85
65573;SHT30;52214;50.940;13.996;2022-12-07T06:04:27;0.91;97.67
65573;SHT30;52214;50.940;13.996;2022-12-07T06:06:53;0.90;98.00
65573;SHT30;52214;50.940;13.996;2022-12-07T06:09:20;1.18;97.69
65573;SHT30;52214;50.940;13.996;2022-12-07T06:14:18;1.18;97.64
65573;SHT30;52214;50.940;13.996;2022-12-07T06:16:44;1.21;96.78
65573;SHT30;52214;50.940;13.996;2022-12-07T06:19:10;1.13;97.66
65573;SHT30;52214;50.940;13.996;2022-12-07T06:21:35;1.17;97.59
65573;SHT30;52214;50.940;13.996;2022-12-07T06:24:01;1.21;96.98
65573;SHT30;52214;50.940;13.996;2022-12-07T06:26:27;1.34;96.16
65573;SHT30;52214;50.940;13.996;2022-12-07T06:28:52;1.14;96.99
65573;SHT30;52214;50.940;13.996;2022-12-07T06:31:18;1.30;97.00
65573;SHT30;52214;50.940;13.996;2022-12-07T06:33:44;1.30;97.26
65573;SHT30;52214;50.940;13.996;2022-12-07T06:36:10;1.43;95.44
65573;SHT30;52214;50.940;13.996;2022-12-07T06:41:12;1.51;95.05
65573;SHT30;52214;50.940;13.996;2022-12-07T06:43:37;1.60;96.45
65573;SHT30;52214;50.940;13.996;2022-12-07T06:46:03;1.52;97.89
65573;SHT30;52214;50.940;13.996;2022-12-07T06:48:29;1.66;96.04
65573;SHT30;52214;50.940;13.996;2022-12-07T06:50:54;1.63;97.14
65573;SHT30;52214;50.940;13.996;2022-12-07T06:53:20;1.73;96.16
65573;SHT30;52214;50.940;13.996;2022-12-07T06:55:46;1.80;96.19
65573;SHT30;52214;50.940;13.996;2022-12-07T06:58:11;1.89;95.98
65573;SHT30;52214;50.940;13.996;2022-12-07T07:00:37;1.91;96.82
65573;SHT30;52214;50.940;13.996;2022-12-07T07:05:34;2.00;94.81
65573;SHT30;52214;50.940;13.996;2022-12-07T07:08:00;2.03;96.06
65573;SHT30;52214;50.940;13.996;2022-12-07T07:10:26;1.97;96.84
65573;SHT30;52214;50.940;13.996;2022-12-07T07:12:51;2.10;95.90
65573;SHT30;52214;50.940;13.996;2022-12-07T07:15:17;2.20;94.74
65573;SHT30;52214;50.940;13.996;2022-12-07T07:17:43;2.17;95.52
65573;SHT30;52214;50.940;13.996;2022-12-07T07:20:09;2.17;95.39
65573;SHT30;52214;50.940;13.996;2022-12-07T07:22:34;2.03;97.26
65573;SHT30;52214;50.940;13.996;2022-12-07T07:25:00;2.14;96.28
65573;SHT30;52214;50.940;13.996;2022-12-07T07:27:25;2.11;96.16
65573;SHT30;52214;50.940;13.996;2022-12-07T07:31:16;2.13;96.58
65573;SHT30;52214;50.940;13.996;2022-12-07T07:33:41;2.13;97.31
65573;SHT30;52214;50.940;13.996;2022-12-07T07:36:07;2.10;97.32
65573;SHT30;52214;50.940;13.996;2022-12-07T07:38:33;2.10;98.07
65573;SHT30;52214;50.940;13.996;2022-12-07T07:40:58;2.06;98.01
65573;SHT30;52214;50.940;13.996;2022-12-07T07:43:24;1.98;98.73
65573;SHT30;52214;50.940;13.996;2022-12-07T07:45:49;1.83;99.99
65573;SHT30;52214;50.940;13.996;2022-12-07T07:48:16;1.59;99.99
65573;SHT30;52214;50.940;13.996;2022-12-07T07:50:41;1.63;99.99
65573;SHT30;52214;50.940;13.996;2022-12-07T07:54:41;1.60;99.99
65573;SHT30;52214;50.940;13.996;2022-12-07T07:57:06;1.51;99.99
65573;SHT30;52214;50.940;13.996;2022-12-07T07:59:32;1.66;99.99
65573;SHT30;52214;50.940;13.996;2022-12-07T08:02:01;1.72;99.99
65573;SHT30;52214;50.940;13.996;2022-12-07T08:04:26;1.70;99.99
65573;SHT30;52214;50.940;13.996;2022-12-07T08:06:52;1.80;99.99
65573;SHT30;52214;50.940;13.996;2022-12-07T08:09:17;1.81;99.99
65573;SHT30;52214;50.940;13.996;2022-12-07T08:11:43;1.83;99.99
65573;SHT30;52214;50.940;13.996;2022-12-07T08:14:10;1.91;99.99
65573;SHT30;52214;50.940;13.996;2022-12-07T08:16:36;1.93;99.99
65573;SHT30;52214;50.940;13.996;2022-12-07T08:20:36;2.00;99.99
65573;SHT30;52214;50.940;13.996;2022-12-07T08:23:02;2.13;99.99
65573;SHT30;52214;50.940;13.996;2022-12-07T08:25:28;2.11;99.99
65573;SHT30;52214;50.940;13.996;2022-12-07T08:27:53;2.18;99.99
65573;SHT30;52214;50.940;13.996;2022-12-07T08:30:20;2.28;99.99
65573;SHT30;52214;50.940;13.996;2022-12-07T08:32:45;2.31;99.99
65573;SHT30;52214;50.940;13.996;2022-12-07T08:35:12;2.38;99.99
65573;SHT30;52214;50.940;13.996;2022-12-07T08:37:38;2.39;99.99
65573;SHT30;52214;50.940;13.996;2022-12-07T08:40:05;2.42;99.99
65573;SHT30;52214;50.940;13.996;2022-12-07T08:42:31;2.45;99.99
65573;SHT30;52214;50.940;13.996;2022-12-07T08:47:41;2.52;99.99
65573;SHT30;52214;50.940;13.996;2022-12-07T08:50:08;2.59;99.99
65573;SHT30;52214;50.940;13.996;2022-12-07T08:52:35;2.67;99.78
65573;SHT30;52214;50.940;13.996;2022-12-07T08:55:02;2.72;99.99
65573;SHT30;52214;50.940;13.996;2022-12-07T08:57:29;2.77;99.64
65573;SHT30;52214;50.940;13.996;2022-12-07T08:59:55;2.83;98.41
65573;SHT30;52214;50.940;13.996;2022-12-07T09:02:21;2.89;99.40
65573;SHT30;52214;50.940;13.996;2022-12-07T09:04:46;2.97;98.44
65573;SHT30;52214;50.940;13.996;2022-12-07T09:07:12;3.07;99.38
65573;SHT30;52214;50.940;13.996;2022-12-07T09:09:38;3.03;99.25
65573;SHT30;52214;50.940;13.996;2022-12-07T09:14:15;3.08;98.40
65573;SHT30;52214;50.940;13.996;2022-12-07T09:16:42;3.11;98.17
65573;SHT30;52214;50.940;13.996;2022-12-07T09:19:08;3.08;97.14
65573;SHT30;52214;50.940;13.996;2022-12-07T09:21:34;3.07;98.83
65573;SHT30;52214;50.940;13.996;2022-12-07T09:23:59;3.17;97.93
65573;SHT30;52214;50.940;13.996;2022-12-07T09:26:25;3.15;96.89
65573;SHT30;52214;50.940;13.996;2022-12-07T09:28:51;3.28;97.10
65573;SHT30;52214;50.940;13.996;2022-12-07T09:31:16;3.21;97.16
65573;SHT30;52214;50.940;13.996;2022-12-07T09:33:42;3.29;97.28
65573;SHT30;52214;50.940;13.996;2022-12-07T09:36:08;3.35;97.06
65573;SHT30;52214;50.940;13.996;2022-12-07T09:41:07;3.27;94.95
65573;SHT30;52214;50.940;13.996;2022-12-07T09:43:34;3.31;95.08
65573;SHT30;52214;50.940;13.996;2022-12-07T09:46:00;3.36;95.38
65573;SHT30;52214;50.940;13.996;2022-12-07T09:48:32;3.32;95.58
65573;SHT30;52214;50.940;13.996;2022-12-07T09:50:59;3.35;95.41
65573;SHT30;52214;50.940;13.996;2022-12-07T09:53:29;3.53;94.72
65573;SHT30;52214;50.940;13.996;2022-12-07T09:55:55;3.53;95.16
65573;SHT30;52214;50.940;13.996;2022-12-07T09:58:26;3.51;93.92
65573;SHT30;52214;50.940;13.996;2022-12-07T10:00:55;3.59;94.56
65573;SHT30;52214;50.940;13.996;2022-12-07T10:04:24;3.62;94.20
65573;SHT30;52214;50.940;13.996;2022-12-07T10:06:51;3.73;94.78
65573;SHT30;52214;50.940;13.996;2022-12-07T10:09:19;3.64;92.42
65573;SHT30;52214;50.940;13.996;2022-12-07T10:12:11;3.62;93.46
65573;SHT30;52214;50.940;13.996;2022-12-07T10:14:48;3.62;94.49
65573;SHT30;52214;50.940;13.996;2022-12-07T10:17:41;3.60;93.80
65573;SHT30;52214;50.940;13.996;2022-12-07T10:22:37;3.77;94.88
65573;SHT30;52214;50.940;13.996;2022-12-07T10:27:43;3.87;92.70
65573;SHT30;52214;50.940;13.996;2022-12-07T10:30:14;3.87;92.74
65573;SHT30;52214;50.940;13.996;2022-12-07T10:32:40;3.93;92.38
65573;SHT30;52214;50.940;13.996;2022-12-07T10:37:51;4.21;92.09
65573;SHT30;52214;50.940;13.996;2022-12-07T10:43:01;4.15;91.58
65573;SHT30;52214;50.940;13.996;2022-12-07T10:45:27;4.15;90.68
65573;SHT30;52214;50.940;13.996;2022-12-07T10:48:10;4.25;90.56
65573;SHT30;52214;50.940;13.996;2022-12-07T11:01:02;4.11;91.78
65573;SHT30;52214;50.940;13.996;2022-12-07T11:03:55;3.97;92.04
65573;SHT30;52214;50.940;13.996;2022-12-07T11:06:39;3.89;92.88
65573;SHT30;52214;50.940;13.996;2022-12-07T11:09:29;4.02;92.06
65573;SHT30;52214;50.940;13.996;2022-12-07T11:15:17;4.08;92.47
65573;SHT30;52214;50.940;13.996;2022-12-07T11:31:28;4.36;91.56
65573;SHT30;52214;50.940;13.996;2022-12-07T11:33:57;4.41;90.42
65573;SHT30;52214;50.940;13.996;2022-12-07T11:39:15;4.22;91.54
65573;SHT30;52214;50.940;13.996;2022-12-07T11:45:15;4.08;91.96
65573;SHT30;52214;50.940;13.996;2022-12-07T11:47:48;3.98;91.78
65573;SHT30;52214;50.940;13.996;2022-12-07T11:52:58;3.95;92.67
65573;SHT30;52214;50.940;13.996;2022-12-07T11:55:32;4.00;92.59
65573;SHT30;52214;50.940;13.996;2022-12-07T12:00:37;3.32;96.42
65573;SHT30;52214;50.940;13.996;2022-12-07T12:03:12;3.17;98.69
65573;SHT30;52214;50.940;13.996;2022-12-07T12:05:40;3.03;99.99
65573;SHT30;52214;50.940;13.996;2022-12-07T12:20:06;3.14;99.83
65573;SHT30;52214;50.940;13.996;2022-12-07T12:22:40;3.15;99.99
65573;SHT30;52214;50.940;13.996;2022-12-07T12:25:18;3.32;99.99
65573;SHT30;52214;50.940;13.996;2022-12-07T12:27:47;3.39;99.77
65573;SHT30;52214;50.940;13.996;2022-12-07T12:30:38;3.64;99.99
65573;SHT30;52214;50.940;13.996;2022-12-07T12:35:31;3.72;99.71
65573;SHT30;52214;50.940;13.996;2022-12-07T12:38:22;3.66;98.16
65573;SHT30;52214;50.940;13.996;2022-12-07T12:40:49;3.64;98.71
65573;SHT30;52214;50.940;13.996;2022-12-07T12:43:46;3.64;98.38
65573;SHT30;52214;50.940;13.996;2022-12-07T12:51:43;3.34;99.19
65573;SHT30;52214;50.940;13.996;2022-12-07T13:01:47;2.36;99.99
65573;SHT30;52214;50.940;13.996;2022-12-07T13:04:30;2.35;99.99
65573;SHT30;52214;50.940;13.996;2022-12-07T13:06:59;2.34;99.99
65573;SHT30;52214;50.940;13.996;2022-12-07T13:09:30;2.26;99.99
65573;SHT30;52214;50.940;13.996;2022-12-07T13:12:10;2.28;99.99
65573;SHT30;52214;50.940;13.996;2022-12-07T13:17:07;2.42;99.99
65573;SHT30;52214;50.940;13.996;2022-12-07T13:26:20;2.11;99.99
65573;SHT30;52214;50.940;13.996;2022-12-07T13:31:46;2.13;99.99
65573;SHT30;52214;50.940;13.996;2022-12-07T13:34:38;2.15;99.99
65573;SHT30;52214;50.940;13.996;2022-12-07T13:37:30;2.06;99.99
65573;SHT30;52214;50.940;13.996;2022-12-07T13:40:15;2.22;99.99
65573;SHT30;52214;50.940;13.996;2022-12-07T13:42:44;2.29;99.99
65573;SHT30;52214;50.940;13.996;2022-12-07T13:45:25;2.22;99.99
65573;SHT30;52214;50.940;13.996;2022-12-07T13:48:30;2.44;99.99
65573;SHT30;52214;50.940;13.996;2022-12-07T13:50:59;3.01;99.99
65573;SHT30;52214;50.940;13.996;2022-12-07T13:53:25;3.07;99.99
65573;SHT30;52214;50.940;13.996;2022-12-07T13:55:59;3.08;99.99
65573;SHT30;52214;50.940;13.996;2022-12-07T13:58:27;3.05;99.99
65573;SHT30;52214;50.940;13.996;2022-12-07T14:00:55;2.96;99.99
65573;SHT30;52214;50.940;13.996;2022-12-07T14:03:28;2.79;99.99
65573;SHT30;52214;50.940;13.996;2022-12-07T14:09:16;2.62;99.99
65573;SHT30;52214;50.940;13.996;2022-12-07T14:11:43;2.50;99.99
65573;SHT30;52214;50.940;13.996;2022-12-07T14:14:20;2.41;99.99
65573;SHT30;52214;50.940;13.996;2022-12-07T14:16:56;2.31;99.99
65573;SHT30;52214;50.940;13.996;2022-12-07T14:19:48;2.17;99.99
65573;SHT30;52214;50.940;13.996;2022-12-07T14:27:55;1.90;99.99
65573;SHT30;52214;50.940;13.996;2022-12-07T14:30:23;1.73;99.99
65573;SHT30;52214;50.940;13.996;2022-12-07T14:32:54;1.72;99.99
65573;SHT30;52214;50.940;13.996;2022-12-07T14:35:22;1.90;99.99
65573;SHT30;52214;50.940;13.996;2022-12-07T14:37:49;1.87;99.99
65573;SHT30;52214;50.940;13.996;2022-12-07T14:40:20;1.79;99.99
65573;SHT30;52214;50.940;13.996;2022-12-07T14:42:50;1.83;99.99
65573;SHT30;52214;50.940;13.996;2022-12-07T14:45:20;1.87;99.99
65573;SHT30;52214;50.940;13.996;2022-12-07T14:47:46;1.89;99.99
65573;SHT30;52214;50.940;13.996;2022-12-07T14:50:14;1.80;99.99
65573;SHT30;52214;50.940;13.996;2022-12-07T14:52:40;1.76;99.99
65573;SHT30;52214;50.940;13.996;2022-12-07T14:55:16;1.74;99.99
65573;SHT30;52214;50.940;13.996;2022-12-07T14:57:42;1.67;99.99
65573;SHT30;52214;50.940;13.996;2022-12-07T15:00:13;1.70;99.99
65573;SHT30;52214;50.940;13.996;2022-12-07T15:02:39;1.72;99.99
65573;SHT30;52214;50.940;13.996;2022-12-07T15:05:05;1.69;99.99
65573;SHT30;52214;50.940;13.996;2022-12-07T15:07:30;1.70;99.99
65573;SHT30;52214;50.940;13.996;2022-12-07T15:09:56;1.76;99.99
65573;SHT30;52214;50.940;13.996;2022-12-07T15:12:21;1.76;99.99
65573;SHT30;52214;50.940;13.996;2022-12-07T15:14:47;2.11;99.99
65573;SHT30;52214;50.940;13.996;2022-12-07T15:17:12;2.24;99.99
65573;SHT30;52214;50.940;13.996;2022-12-07T15:19:38;2.28;99.99
65573;SHT30;52214;50.940;13.996;2022-12-07T15:22:04;2.31;99.99
65573;SHT30;52214;50.940;13.996;2022-12-07T15:24:29;2.31;99.99
65573;SHT30;52214;50.940;13.996;2022-12-07T15:26:55;2.22;99.99
65573;SHT30;52214;50.940;13.996;2022-12-07T15:29:21;2.32;99.99
65573;SHT30;52214;50.940;13.996;2022-12-07T15:31:49;2.28;99.99
65573;SHT30;52214;50.940;13.996;2022-12-07T15:34:14;2.29;99.99
65573;SHT30;52214;50.940;13.996;2022-12-07T15:36:40;2.25;99.99
65573;SHT30;52214;50.940;13.996;2022-12-07T15:39:05;2.29;99.99
65573;SHT30;52214;50.940;13.996;2022-12-07T15:41:31;2.28;99.99
65573;SHT30;52214;50.940;13.996;2022-12-07T15:43:56;2.38;99.99
65573;SHT30;52214;50.940;13.996;2022-12-07T15:46:41;2.52;99.99
65573;SHT30;52214;50.940;13.996;2022-12-07T15:49:13;2.57;99.99
65573;SHT30;52214;50.940;13.996;2022-12-07T15:51:41;2.50;99.99
65573;SHT30;52214;50.940;13.996;2022-12-07T15:54:07;2.60;99.99
65573;SHT30;52214;50.940;13.996;2022-12-07T15:56:32;2.62;99.99
65573;SHT30;52214;50.940;13.996;2022-12-07T15:58:58;2.63;99.99
65573;SHT30;52214;50.940;13.996;2022-12-07T16:01:23;2.62;99.99
65573;SHT30;52214;50.940;13.996;2022-12-07T16:03:49;2.63;99.99
65573;SHT30;52214;50.940;13.996;2022-12-07T16:06:16;2.63;99.99
65573;SHT30;52214;50.940;13.996;2022-12-07T16:08:43;2.67;99.99
65573;SHT30;52214;50.940;13.996;2022-12-07T16:11:09;2.62;99.99
65573;SHT30;52214;50.940;13.996;2022-12-07T16:13:35;2.57;99.99
65573;SHT30;52214;50.940;13.996;2022-12-07T16:16:10;2.60;99.99
65573;SHT30;52214;50.940;13.996;2022-12-07T16:18:36;2.60;99.99
65573;SHT30;52214;50.940;13.996;2022-12-07T16:21:03;2.73;99.99
65573;SHT30;52214;50.940;13.996;2022-12-07T16:23:29;2.64;99.99
65573;SHT30;52214;50.940;13.996;2022-12-07T16:25:54;2.69;99.99
65573;SHT30;52214;50.940;13.996;2022-12-07T16:28:39;2.75;99.99
65573;SHT30;52214;50.940;13.996;2022-12-07T16:31:24;2.70;99.99
65573;SHT30;52214;50.940;13.996;2022-12-07T16:34:09;2.60;99.99
65573;SHT30;52214;50.940;13.996;2022-12-07T16:36:53;2.72;99.99
65573;SHT30;52214;50.940;13.996;2022-12-07T16:39:37;2.72;99.99
65573;SHT30;52214;50.940;13.996;2022-12-07T16:42:20;2.70;99.99
65573;SHT30;52214;50.940;13.996;2022-12-07T16:45:05;2.57;99.99
65573;SHT30;52214;50.940;13.996;2022-12-07T16:47:49;2.52;99.99
65573;SHT30;52214;50.940;13.996;2022-12-07T16:50:33;2.46;99.99
65573;SHT30;52214;50.940;13.996;2022-12-07T16:53:18;2.48;99.99
65573;SHT30;52214;50.940;13.996;2022-12-07T16:55:58;2.41;99.99
65573;SHT30;52214;50.940;13.996;2022-12-07T16:58:24;2.48;99.99
65573;SHT30;52214;50.940;13.996;2022-12-07T17:00:49;2.49;99.99
65573;SHT30;52214;50.940;13.996;2022-12-07T17:03:15;2.46;99.99
65573;SHT30;52214;50.940;13.996;2022-12-07T17:05:43;2.42;99.99
65573;SHT30;52214;50.940;13.996;2022-12-07T17:08:10;2.53;99.99
65573;SHT30;52214;50.940;13.996;2022-12-07T17:10:38;2.49;99.99
65573;SHT30;52214;50.940;13.996;2022-12-07T17:13:05;2.49;99.99
65573;SHT30;52214;50.940;13.996;2022-12-07T17:16:03;2.48;99.99
65573;SHT30;52214;50.940;13.996;2022-12-07T17:18:34;2.48;99.99
65573;SHT30;52214;50.940;13.996;2022-12-07T17:21:04;2.52;99.99
65573;SHT30;52214;50.940;13.996;2022-12-07T17:23:31;2.53;99.99
65573;SHT30;52214;50.940;13.996;2022-12-07T17:26:04;2.59;99.99
65573;SHT30;52214;50.940;13.996;2022-12-07T17:28:30;2.56;99.99
65573;SHT30;52214;50.940;13.996;2022-12-07T17:30:55;2.55;99.99
65573;SHT30;52214;50.940;13.996;2022-12-07T17:33:21;2.59;99.99
65573;SHT30;52214;50.940;13.996;2022-12-07T17:35:46;2.62;99.98
65573;SHT30;52214;50.940;13.996;2022-12-07T17:38:13;2.49;99.99
65573;SHT30;52214;50.940;13.996;2022-12-07T17:40:38;2.53;99.99
65573;SHT30;52214;50.940;13.996;2022-12-07T17:43:04;2.45;99.99
65573;SHT30;52214;50.940;13.996;2022-12-07T17:45:29;2.46;99.99
65573;SHT30;52214;50.940;13.996;2022-12-07T17:47:55;2.48;99.99
65573;SHT30;52214;50.940;13.996;2022-12-07T17:50:20;2.53;99.99
65573;SHT30;52214;50.940;13.996;2022-12-07T17:53:08;2.41;99.99
65573;SHT30;52214;50.940;13.996;2022-12-07T17:55:38;2.41;99.99
65573;SHT30;52214;50.940;13.996;2022-12-07T17:58:05;2.35;99.99
65573;SHT30;52214;50.940;13.996;2022-12-07T18:00:30;2.34;99.99
65573;SHT30;52214;50.940;13.996;2022-12-07T18:03:04;2.26;99.99
65573;SHT30;52214;50.940;13.996;2022-12-07T18:05:31;2.26;99.99
65573;SHT30;52214;50.940;13.996;2022-12-07T18:07:57;2.29;99.99
65573;SHT30;52214;50.940;13.996;2022-12-07T18:10:23;2.24;99.99
65573;SHT30;52214;50.940;13.996;2022-12-07T18:12:48;2.28;99.99
65573;SHT30;52214;50.940;13.996;2022-12-07T18:15:14;2.28;99.99
65573;SHT30;52214;50.940;13.996;2022-12-07T18:17:39;2.28;99.99
65573;SHT30;52214;50.940;13.996;2022-12-07T18:20:07;2.24;99.99